Quick Links (Output Below):   Max & Min Temps   /   Climate Reports   /   Zone Forecasts
River Forecasts   /   Forestry Forecasts   /   Aviation Forecasts   /   Radars   /   Features

Terminal Aerodrome Forecast (Fort Smith)

Pick a Site:
Arkadelphia | El Dorado | Fayetteville | Fort Smith | Harrison | Highfill | Hot Springs | Jonesboro
Little Rock | Monticello | Mountain Home | Pine Bluff | Texarkana
 Forecast 

KFSM 252123Z 2521/2618 12007KT P6SM SCT025
     FM260600 11004KT P6SM OVC015
     FM260900 09007KT 5SM BR OVC007
     FM261400 15008KT P6SM OVC015=


 Latest METARs (Observations) 
How to Decode METARs
22Z KFSM 252153Z 16007KT 10SM FEW033 30/22 A2992 RMK AO2 SLP128
         T03000222
         
21Z KFSM 252053Z 12007KT 10SM FEW026 28/22 A2994 RMK AO2 SLP134
         T02830217 56020
         
20Z KFSM 251953Z 11009KT 10SM SCT023 27/20 A2998 RMK AO2 SLP145
         T02720200
         
19Z KFSM 251853Z 11006KT 10SM BKN027 OVC036 24/19 A3000 RMK AO2 SLP154
         T02440189
         
18Z KFSM 251753Z 10008KT 10SM OVC031 23/18 A3002 RMK AO2 SLP163 60022
         T02280183 10228 20189 50003
         
17Z KFSM 251653Z 10009G17KT 10SM BKN040 OVC050 21/18 A3004 RMK AO2
         RAE44 TSB01E23 SLP169 P0008 T02060178
         
16Z KFSM 251550Z 03012KT 2SM +RA BR FEW007 SCT022 OVC031 19/17 A3008
         RMK AO2 PK WND 03029/1532 RAB23 SLP181 P0014 T01890172
         
15Z KFSM 251453Z 07005KT 10SM BKN029 OVC043 22/18 A3001 RMK AO2 SLP159
         T02170183 53004
         
14Z KFSM 251353Z 04005KT 10SM BKN033 OVC042 21/19 A3001 RMK AO2 SLP159
         T02060189
         
13Z KFSM 251253Z 11006KT 10SM BKN049 BKN075 21/18 A2999 RMK AO2 SLP150
         T02060178
         
***** Today's Observations (Above) *****


Back to Main Page
http://www.srh.noaa.gov/lzk/qfcst.php

USA.gov is the U.S. government's official web portal to all federal, state and local government web resources and services.